sensor_id;sensor_type;location;lat;lon;timestamp;pressure;altitude;pressure_sealevel;temperature;humidity
23616;BME280;11985;49.404;7.734;2023-09-12T00:03:43;96939.53;;;16.91;100.00
23616;BME280;11985;49.404;7.734;2023-09-12T00:08:44;96948.84;;;16.88;100.00
23616;BME280;11985;49.404;7.734;2023-09-12T00:13:48;96946.97;;;16.62;100.00
23616;BME280;11985;49.404;7.734;2023-09-12T00:18:49;96948.31;;;16.37;100.00
23616;BME280;11985;49.404;7.734;2023-09-12T00:23:51;96945.25;;;16.24;100.00
23616;BME280;11985;49.404;7.734;2023-09-12T00:28:54;96930.47;;;16.33;100.00
23616;BME280;11985;49.404;7.734;2023-09-12T00:33:56;96930.28;;;16.40;100.00
23616;BME280;11985;49.404;7.734;2023-09-12T00:38:57;96919.44;;;16.46;100.00
23616;BME280;11985;49.404;7.734;2023-09-12T00:44:00;96911.19;;;16.48;100.00
23616;BME280;11985;49.404;7.734;2023-09-12T00:49:03;96905.88;;;16.48;100.00
23616;BME280;11985;49.404;7.734;2023-09-12T00:54:06;96912.81;;;16.49;100.00
23616;BME280;11985;49.404;7.734;2023-09-12T00:59:10;96896.38;;;16.52;100.00
23616;BME280;11985;49.404;7.734;2023-09-12T01:04:12;96888.94;;;16.54;100.00
23616;BME280;11985;49.404;7.734;2023-09-12T01:09:13;96883.59;;;16.54;100.00
23616;BME280;11985;49.404;7.734;2023-09-12T01:14:16;96886.22;;;16.49;100.00
23616;BME280;11985;49.404;7.734;2023-09-12T01:19:18;96896.16;;;16.31;100.00
23616;BME280;11985;49.404;7.734;2023-09-12T01:29:53;96913.06;;;16.20;100.00
23616;BME280;11985;49.404;7.734;2023-09-12T01:34:57;96897.06;;;16.15;100.00
23616;BME280;11985;49.404;7.734;2023-09-12T01:39:59;96893.91;;;16.18;100.00
23616;BME280;11985;49.404;7.734;2023-09-12T01:45:04;96898.38;;;16.13;100.00
23616;BME280;11985;49.404;7.734;2023-09-12T01:50:08;96886.44;;;16.15;100.00
23616;BME280;11985;49.404;7.734;2023-09-12T01:55:13;96888.06;;;16.16;100.00
23616;BME280;11985;49.404;7.734;2023-09-12T02:00:19;96880.16;;;16.21;100.00
23616;BME280;11985;49.404;7.734;2023-09-12T02:05:21;96874.91;;;16.31;100.00
23616;BME280;11985;49.404;7.734;2023-09-12T02:10:23;96874.75;;;16.43;100.00
23616;BME280;11985;49.404;7.734;2023-09-12T02:15:26;96879.81;;;16.45;100.00
23616;BME280;11985;49.404;7.734;2023-09-12T02:20:28;96876.31;;;16.39;100.00
23616;BME280;11985;49.404;7.734;2023-09-12T02:25:29;96875.81;;;16.42;100.00
23616;BME280;11985;49.404;7.734;2023-09-12T02:30:32;96870.59;;;16.52;100.00
23616;BME280;11985;49.404;7.734;2023-09-12T02:35:34;96871.16;;;16.59;100.00
23616;BME280;11985;49.404;7.734;2023-09-12T02:40:36;96860.34;;;16.66;100.00
23616;BME280;11985;49.404;7.734;2023-09-12T02:45:39;96852.44;;;16.71;100.00
23616;BME280;11985;49.404;7.734;2023-09-12T02:50:41;96857.22;;;16.74;100.00
23616;BME280;11985;49.404;7.734;2023-09-12T02:55:42;96859.34;;;16.72;100.00
23616;BME280;11985;49.404;7.734;2023-09-12T03:00:45;96858.72;;;16.65;100.00
23616;BME280;11985;49.404;7.734;2023-09-12T03:05:57;96855.03;;;16.66;100.00
23616;BME280;11985;49.404;7.734;2023-09-12T03:10:59;96853.41;;;16.65;100.00
23616;BME280;11985;49.404;7.734;2023-09-12T03:16:04;96853.41;;;16.65;100.00
23616;BME280;11985;49.404;7.734;2023-09-12T03:21:06;96863.50;;;16.63;100.00
23616;BME280;11985;49.404;7.734;2023-09-12T03:26:08;96868.75;;;16.58;100.00
23616;BME280;11985;49.404;7.734;2023-09-12T03:31:12;96875.44;;;16.60;100.00
23616;BME280;11985;49.404;7.734;2023-09-12T03:36:14;96860.84;;;16.63;100.00
23616;BME280;11985;49.404;7.734;2023-09-12T03:41:19;96861.41;;;16.70;100.00
23616;BME280;11985;49.404;7.734;2023-09-12T03:46:23;96866.25;;;16.73;100.00
23616;BME280;11985;49.404;7.734;2023-09-12T03:51:25;96852.72;;;16.75;100.00
23616;BME280;11985;49.404;7.734;2023-09-12T03:56:27;96865.28;;;16.84;100.00
23616;BME280;11985;49.404;7.734;2023-09-12T04:01:30;96870.19;;;17.03;100.00
23616;BME280;11985;49.404;7.734;2023-09-12T04:06:32;96878.22;;;17.08;100.00
23616;BME280;11985;49.404;7.734;2023-09-12T04:11:33;96868.09;;;17.10;100.00
23616;BME280;11985;49.404;7.734;2023-09-12T04:16:36;96875.00;;;17.06;100.00
23616;BME280;11985;49.404;7.734;2023-09-12T04:21:38;96866.91;;;16.91;100.00
23616;BME280;11985;49.404;7.734;2023-09-12T04:26:40;96868.38;;;16.71;100.00
23616;BME280;11985;49.404;7.734;2023-09-12T04:31:43;96869.81;;;16.57;100.00
23616;BME280;11985;49.404;7.734;2023-09-12T04:36:44;96860.97;;;16.46;100.00
23616;BME280;11985;49.404;7.734;2023-09-12T04:41:46;96871.75;;;16.34;100.00
23616;BME280;11985;49.404;7.734;2023-09-12T04:46:49;96860.72;;;16.21;100.00
23616;BME280;11985;49.404;7.734;2023-09-12T04:51:51;96857.41;;;16.08;100.00
23616;BME280;11985;49.404;7.734;2023-09-12T04:56:52;96867.69;;;16.00;100.00
23616;BME280;11985;49.404;7.734;2023-09-12T05:01:56;96854.31;;;15.90;100.00
23616;BME280;11985;49.404;7.734;2023-09-12T05:06:57;96854.50;;;15.83;100.00
23616;BME280;11985;49.404;7.734;2023-09-12T05:11:59;96857.56;;;15.97;100.00
23616;BME280;11985;49.404;7.734;2023-09-12T05:17:02;96847.34;;;16.10;100.00
23616;BME280;11985;49.404;7.734;2023-09-12T05:22:04;96848.53;;;16.25;100.00
23616;BME280;11985;49.404;7.734;2023-09-12T05:27:06;96865.91;;;16.32;100.00
23616;BME280;11985;49.404;7.734;2023-09-12T05:32:09;96868.84;;;16.36;100.00
23616;BME280;11985;49.404;7.734;2023-09-12T05:37:11;96891.38;;;16.28;100.00
23616;BME280;11985;49.404;7.734;2023-09-12T05:42:12;96897.69;;;16.22;100.00
23616;BME280;11985;49.404;7.734;2023-09-12T05:47:16;96898.75;;;16.26;100.00
23616;BME280;11985;49.404;7.734;2023-09-12T05:52:18;96908.00;;;16.19;100.00
23616;BME280;11985;49.404;7.734;2023-09-12T05:57:19;96917.22;;;16.11;100.00
23616;BME280;11985;49.404;7.734;2023-09-12T06:02:22;96911.59;;;16.07;100.00
23616;BME280;11985;49.404;7.734;2023-09-12T06:07:24;96912.72;;;16.12;100.00
23616;BME280;11985;49.404;7.734;2023-09-12T06:12:26;96902.69;;;16.19;100.00
23616;BME280;11985;49.404;7.734;2023-09-12T06:17:29;96903.59;;;16.29;100.00
23616;BME280;11985;49.404;7.734;2023-09-12T06:22:30;96904.34;;;16.52;100.00
23616;BME280;11985;49.404;7.734;2023-09-12T06:27:32;96904.13;;;16.85;100.00
23616;BME280;11985;49.404;7.734;2023-09-12T06:32:35;96905.19;;;17.22;100.00
23616;BME280;11985;49.404;7.734;2023-09-12T06:37:37;96893.91;;;17.52;100.00
23616;BME280;11985;49.404;7.734;2023-09-12T06:42:39;96905.25;;;17.84;100.00
23616;BME280;11985;49.404;7.734;2023-09-12T06:47:42;96911.25;;;18.17;100.00
23616;BME280;11985;49.404;7.734;2023-09-12T06:52:43;96914.50;;;18.50;100.00
23616;BME280;11985;49.404;7.734;2023-09-12T06:57:45;96915.91;;;18.88;100.00
23616;BME280;11985;49.404;7.734;2023-09-12T07:02:49;96917.75;;;19.23;100.00
23616;BME280;11985;49.404;7.734;2023-09-12T07:07:51;96921.94;;;19.60;100.00
23616;BME280;11985;49.404;7.734;2023-09-12T07:12:53;96927.22;;;19.90;100.00
23616;BME280;11985;49.404;7.734;2023-09-12T07:17:56;96921.16;;;20.24;100.00
23616;BME280;11985;49.404;7.734;2023-09-12T07:22:59;96913.19;;;20.63;100.00
23616;BME280;11985;49.404;7.734;2023-09-12T07:28:01;96919.84;;;21.05;100.00
23616;BME280;11985;49.404;7.734;2023-09-12T07:33:05;96934.59;;;21.31;100.00
23616;BME280;11985;49.404;7.734;2023-09-12T07:38:07;96934.25;;;21.43;100.00
23616;BME280;11985;49.404;7.734;2023-09-12T07:43:08;96937.53;;;21.59;100.00
23616;BME280;11985;49.404;7.734;2023-09-12T07:48:12;96943.03;;;21.73;100.00
23616;BME280;11985;49.404;7.734;2023-09-12T07:53:14;96948.97;;;21.70;100.00
23616;BME280;11985;49.404;7.734;2023-09-12T07:58:16;96950.34;;;21.67;100.00
23616;BME280;11985;49.404;7.734;2023-09-12T08:03:20;96957.00;;;21.70;100.00
23616;BME280;11985;49.404;7.734;2023-09-12T08:08:21;96957.94;;;21.84;100.00
23616;BME280;11985;49.404;7.734;2023-09-12T08:13:25;96968.19;;;21.77;100.00
23616;BME280;11985;49.404;7.734;2023-09-12T08:18:30;96961.50;;;21.98;100.00
23616;BME280;11985;49.404;7.734;2023-09-12T08:23:31;96966.16;;;22.17;100.00
23616;BME280;11985;49.404;7.734;2023-09-12T08:28:33;96965.50;;;22.25;100.00
23616;BME280;11985;49.404;7.734;2023-09-12T08:33:36;96964.88;;;22.33;100.00
23616;BME280;11985;49.404;7.734;2023-09-12T08:38:38;96969.03;;;22.44;100.00
23616;BME280;11985;49.404;7.734;2023-09-12T08:43:39;96963.13;;;22.42;100.00
23616;BME280;11985;49.404;7.734;2023-09-12T08:48:43;96965.97;;;22.51;100.00
23616;BME280;11985;49.404;7.734;2023-09-12T08:53:45;96972.44;;;22.69;100.00
23616;BME280;11985;49.404;7.734;2023-09-12T08:58:47;96977.81;;;22.69;100.00
23616;BME280;11985;49.404;7.734;2023-09-12T09:03:51;96986.06;;;22.53;100.00
23616;BME280;11985;49.404;7.734;2023-09-12T09:08:53;96970.50;;;22.55;100.00
23616;BME280;11985;49.404;7.734;2023-09-12T09:13:55;96964.75;;;22.62;100.00
23616;BME280;11985;49.404;7.734;2023-09-12T09:19:00;96975.97;;;22.64;100.00
23616;BME280;11985;49.404;7.734;2023-09-12T09:24:04;96972.28;;;22.79;100.00
23616;BME280;11985;49.404;7.734;2023-09-12T09:29:08;96972.53;;;23.01;100.00
23616;BME280;11985;49.404;7.734;2023-09-12T09:34:13;96968.75;;;23.02;100.00
23616;BME280;11985;49.404;7.734;2023-09-12T09:39:16;96975.28;;;23.29;100.00
23616;BME280;11985;49.404;7.734;2023-09-12T09:44:20;96973.19;;;23.26;100.00
23616;BME280;11985;49.404;7.734;2023-09-12T09:49:24;96969.16;;;23.42;100.00
23616;BME280;11985;49.404;7.734;2023-09-12T09:54:25;96973.78;;;23.55;100.00
23616;BME280;11985;49.404;7.734;2023-09-12T09:59:27;96965.19;;;23.53;100.00
23616;BME280;11985;49.404;7.734;2023-09-12T10:04:31;96962.56;;;23.81;100.00
23616;BME280;11985;49.404;7.734;2023-09-12T10:09:34;96956.41;;;23.94;100.00
23616;BME280;11985;49.404;7.734;2023-09-12T10:14:37;96961.56;;;24.18;100.00
23616;BME280;11985;49.404;7.734;2023-09-12T10:19:44;96966.56;;;24.38;99.34
23616;BME280;11985;49.404;7.734;2023-09-12T10:24:50;96955.56;;;24.48;99.14
23616;BME280;11985;49.404;7.734;2023-09-12T10:29:53;96953.78;;;25.02;98.44
23616;BME280;11985;49.404;7.734;2023-09-12T10:34:59;96955.78;;;25.33;97.36
23616;BME280;11985;49.404;7.734;2023-09-12T10:40:02;96955.59;;;25.30;95.24
23616;BME280;11985;49.404;7.734;2023-09-12T10:45:07;96943.31;;;25.46;95.27
23616;BME280;11985;49.404;7.734;2023-09-12T10:50:11;96939.84;;;25.85;95.25
23616;BME280;11985;49.404;7.734;2023-09-12T10:55:15;96946.97;;;25.81;93.53
23616;BME280;11985;49.404;7.734;2023-09-12T11:00:18;96939.09;;;25.62;92.83
23616;BME280;11985;49.404;7.734;2023-09-12T11:05:37;96939.56;;;25.64;92.86
23616;BME280;11985;49.404;7.734;2023-09-12T11:10:40;96934.66;;;25.97;93.17
23616;BME280;11985;49.404;7.734;2023-09-12T11:16:11;96932.84;;;26.32;92.01
23616;BME280;11985;49.404;7.734;2023-09-12T11:21:14;96938.00;;;26.60;89.96
23616;BME280;11985;49.404;7.734;2023-09-12T11:26:16;96935.91;;;26.74;87.16
23616;BME280;11985;49.404;7.734;2023-09-12T11:31:24;96940.66;;;26.86;85.32
23616;BME280;11985;49.404;7.734;2023-09-12T11:36:28;96939.56;;;26.78;84.53
23616;BME280;11985;49.404;7.734;2023-09-12T11:41:39;96948.31;;;26.84;82.89
23616;BME280;11985;49.404;7.734;2023-09-12T11:46:41;96946.56;;;27.14;82.51
23616;BME280;11985;49.404;7.734;2023-09-12T11:51:49;96935.91;;;27.26;82.77
23616;BME280;11985;49.404;7.734;2023-09-12T11:56:51;96933.09;;;27.61;82.07
23616;BME280;11985;49.404;7.734;2023-09-12T12:01:57;96942.22;;;27.95;79.58
23616;BME280;11985;49.404;7.734;2023-09-12T12:07:00;96935.25;;;27.85;78.21
23616;BME280;11985;49.404;7.734;2023-09-12T12:12:10;96940.31;;;27.86;76.53
23616;BME280;11985;49.404;7.734;2023-09-12T12:17:12;96941.34;;;28.03;73.86
23616;BME280;11985;49.404;7.734;2023-09-12T12:22:16;96930.53;;;28.03;71.83
23616;BME280;11985;49.404;7.734;2023-09-12T12:27:18;96928.69;;;27.95;71.01
23616;BME280;11985;49.404;7.734;2023-09-12T12:32:19;96929.31;;;28.21;70.63
23616;BME280;11985;49.404;7.734;2023-09-12T12:37:28;96923.06;;;28.29;70.06
23616;BME280;11985;49.404;7.734;2023-09-12T12:42:37;96919.06;;;28.35;69.64
23616;BME280;11985;49.404;7.734;2023-09-12T12:47:39;96922.38;;;28.62;69.17
23616;BME280;11985;49.404;7.734;2023-09-12T12:52:42;96919.13;;;28.89;66.99
23616;BME280;11985;49.404;7.734;2023-09-12T12:57:44;96910.31;;;28.92;65.91
23616;BME280;11985;49.404;7.734;2023-09-12T13:02:46;96912.19;;;29.01;65.14
23616;BME280;11985;49.404;7.734;2023-09-12T13:13:47;96888.81;;;29.90;60.28
23616;BME280;11985;49.404;7.734;2023-09-12T13:18:49;96878.44;;;29.56;58.14
23616;BME280;11985;49.404;7.734;2023-09-12T13:23:51;96875.38;;;29.69;56.99
23616;BME280;11985;49.404;7.734;2023-09-12T13:28:54;96872.88;;;29.89;55.62
23616;BME280;11985;49.404;7.734;2023-09-12T13:33:55;96860.09;;;29.89;55.90
23616;BME280;11985;49.404;7.734;2023-09-12T13:38:57;96851.72;;;29.94;54.91
23616;BME280;11985;49.404;7.734;2023-09-12T13:44:00;96859.75;;;29.91;52.57
23616;BME280;11985;49.404;7.734;2023-09-12T13:49:02;96854.06;;;30.08;52.00
23616;BME280;11985;49.404;7.734;2023-09-12T13:54:03;96858.81;;;30.23;51.39
23616;BME280;11985;49.404;7.734;2023-09-12T13:59:08;96865.75;;;30.21;51.88
23616;BME280;11985;49.404;7.734;2023-09-12T14:04:09;96854.88;;;29.96;52.02
23616;BME280;11985;49.404;7.734;2023-09-12T14:09:11;96849.22;;;30.02;51.99
23616;BME280;11985;49.404;7.734;2023-09-12T14:14:14;96846.75;;;29.84;52.59
23616;BME280;11985;49.404;7.734;2023-09-12T14:19:17;96842.41;;;30.20;52.86
23616;BME280;11985;49.404;7.734;2023-09-12T14:24:18;96843.00;;;30.54;52.72
23616;BME280;11985;49.404;7.734;2023-09-12T14:29:21;96830.06;;;30.63;51.91
23616;BME280;11985;49.404;7.734;2023-09-12T14:34:24;96829.69;;;30.92;51.49
23616;BME280;11985;49.404;7.734;2023-09-12T14:39:27;96831.16;;;30.74;50.93
23616;BME280;11985;49.404;7.734;2023-09-12T14:44:30;96826.63;;;30.78;50.80
23616;BME280;11985;49.404;7.734;2023-09-12T14:49:33;96814.78;;;30.30;50.47
23616;BME280;11985;49.404;7.734;2023-09-12T14:54:35;96809.44;;;29.93;51.06
23616;BME280;11985;49.404;7.734;2023-09-12T14:59:38;96795.97;;;29.48;51.80
23616;BME280;11985;49.404;7.734;2023-09-12T15:04:39;96793.84;;;29.66;52.44
23616;BME280;11985;49.404;7.734;2023-09-12T15:09:41;96790.41;;;29.93;53.11
23616;BME280;11985;49.404;7.734;2023-09-12T15:14:44;96786.66;;;29.98;52.45
23616;BME280;11985;49.404;7.734;2023-09-12T15:19:46;96783.06;;;29.94;53.42
23616;BME280;11985;49.404;7.734;2023-09-12T15:24:47;96782.50;;;29.88;54.94
23616;BME280;11985;49.404;7.734;2023-09-12T15:29:50;96784.50;;;30.04;53.87
23616;BME280;11985;49.404;7.734;2023-09-12T15:34:52;96783.06;;;30.34;53.32
23616;BME280;11985;49.404;7.734;2023-09-12T15:39:54;96786.66;;;30.94;52.33
23616;BME280;11985;49.404;7.734;2023-09-12T15:44:57;96782.50;;;30.85;52.33
23616;BME280;11985;49.404;7.734;2023-09-12T15:49:58;96782.78;;;30.95;51.46
23616;BME280;11985;49.404;7.734;2023-09-12T15:55:00;96778.81;;;30.77;51.46
23616;BME280;11985;49.404;7.734;2023-09-12T16:00:05;96785.16;;;30.97;51.14
23616;BME280;11985;49.404;7.734;2023-09-12T16:05:10;96808.53;;;32.51;51.80
23616;BME280;11985;49.404;7.734;2023-09-12T16:10:12;96800.97;;;32.64;50.37
23616;BME280;11985;49.404;7.734;2023-09-12T16:15:16;96803.09;;;31.96;50.68
23616;BME280;11985;49.404;7.734;2023-09-12T16:20:17;96806.50;;;31.11;52.47
23616;BME280;11985;49.404;7.734;2023-09-12T16:25:19;96800.41;;;29.77;55.04
23616;BME280;11985;49.404;7.734;2023-09-12T16:30:22;96814.72;;;28.71;57.70
23616;BME280;11985;49.404;7.734;2023-09-12T16:35:24;96810.59;;;27.81;60.90
23616;BME280;11985;49.404;7.734;2023-09-12T16:40:26;96805.06;;;27.10;64.03
23616;BME280;11985;49.404;7.734;2023-09-12T16:45:30;96802.13;;;26.59;67.15
23616;BME280;11985;49.404;7.734;2023-09-12T16:50:32;96799.28;;;26.21;70.80
23616;BME280;11985;49.404;7.734;2023-09-12T16:55:33;96776.59;;;25.88;74.00
23616;BME280;11985;49.404;7.734;2023-09-12T17:00:37;96774.91;;;25.52;76.71
23616;BME280;11985;49.404;7.734;2023-09-12T17:05:39;96764.19;;;25.21;79.36
23616;BME280;11985;49.404;7.734;2023-09-12T17:10:41;96762.41;;;24.85;81.90
23616;BME280;11985;49.404;7.734;2023-09-12T17:15:44;96789.06;;;24.64;84.11
23616;BME280;11985;49.404;7.734;2023-09-12T17:20:46;96801.94;;;24.45;86.40
23616;BME280;11985;49.404;7.734;2023-09-12T17:25:48;96811.69;;;24.18;88.76
23616;BME280;11985;49.404;7.734;2023-09-12T17:30:51;96814.81;;;23.98;90.84
23616;BME280;11985;49.404;7.734;2023-09-12T17:35:52;96806.69;;;23.89;93.22
23616;BME280;11985;49.404;7.734;2023-09-12T17:40:54;96792.13;;;23.90;94.77
23616;BME280;11985;49.404;7.734;2023-09-12T17:45:58;96773.63;;;23.89;95.90
23616;BME280;11985;49.404;7.734;2023-09-12T17:51:00;96784.97;;;23.86;96.67
23616;BME280;11985;49.404;7.734;2023-09-12T17:56:01;96807.91;;;23.83;97.08
23616;BME280;11985;49.404;7.734;2023-09-12T18:01:05;96817.88;;;23.69;95.25
23616;BME280;11985;49.404;7.734;2023-09-12T18:06:07;96822.63;;;23.58;92.43
23616;BME280;11985;49.404;7.734;2023-09-12T18:11:08;96835.09;;;23.40;92.77
23616;BME280;11985;49.404;7.734;2023-09-12T18:16:12;96853.78;;;23.04;94.19
23616;BME280;11985;49.404;7.734;2023-09-12T18:21:14;96876.13;;;22.81;95.83
23616;BME280;11985;49.404;7.734;2023-09-12T18:26:15;96904.31;;;22.46;96.60
23616;BME280;11985;49.404;7.734;2023-09-12T18:31:19;96906.00;;;22.23;97.17
23616;BME280;11985;49.404;7.734;2023-09-12T18:36:20;96920.66;;;22.06;96.56
23616;BME280;11985;49.404;7.734;2023-09-12T18:41:22;96940.81;;;21.80;94.59
23616;BME280;11985;49.404;7.734;2023-09-12T18:46:25;96953.81;;;21.68;93.88
23616;BME280;11985;49.404;7.734;2023-09-12T18:51:27;96950.41;;;21.33;92.94
23616;BME280;11985;49.404;7.734;2023-09-12T18:56:29;96953.47;;;20.82;92.87
23616;BME280;11985;49.404;7.734;2023-09-12T19:01:33;96961.09;;;20.60;94.25
23616;BME280;11985;49.404;7.734;2023-09-12T19:06:34;96956.38;;;20.46;95.42
23616;BME280;11985;49.404;7.734;2023-09-12T19:11:36;96974.03;;;20.37;96.81
23616;BME280;11985;49.404;7.734;2023-09-12T19:16:39;96971.34;;;20.42;97.76
23616;BME280;11985;49.404;7.734;2023-09-12T19:21:40;96976.66;;;20.52;98.32
23616;BME280;11985;49.404;7.734;2023-09-12T19:26:42;96971.84;;;20.54;98.52
23616;BME280;11985;49.404;7.734;2023-09-12T19:31:45;96974.53;;;20.54;98.87
23616;BME280;11985;49.404;7.734;2023-09-12T19:36:47;96977.78;;;20.46;98.70
23616;BME280;11985;49.404;7.734;2023-09-12T19:41:48;96989.31;;;20.26;99.40
23616;BME280;11985;49.404;7.734;2023-09-12T19:46:51;96997.66;;;20.15;100.00
23616;BME280;11985;49.404;7.734;2023-09-12T19:51:53;97004.69;;;20.00;100.00
23616;BME280;11985;49.404;7.734;2023-09-12T19:56:54;97010.59;;;19.87;100.00
23616;BME280;11985;49.404;7.734;2023-09-12T20:01:57;97014.91;;;19.78;100.00
23616;BME280;11985;49.404;7.734;2023-09-12T20:06:59;97031.47;;;19.70;100.00
23616;BME280;11985;49.404;7.734;2023-09-12T20:12:01;97030.13;;;19.57;100.00
23616;BME280;11985;49.404;7.734;2023-09-12T20:17:04;97022.91;;;19.52;100.00
23616;BME280;11985;49.404;7.734;2023-09-12T20:22:06;97022.91;;;19.47;100.00
23616;BME280;11985;49.404;7.734;2023-09-12T20:27:07;97033.06;;;19.56;100.00
23616;BME280;11985;49.404;7.734;2023-09-12T20:32:11;97032.03;;;19.72;100.00
23616;BME280;11985;49.404;7.734;2023-09-12T20:37:12;97035.22;;;19.64;100.00
23616;BME280;11985;49.404;7.734;2023-09-12T20:42:14;97037.88;;;19.48;100.00
23616;BME280;11985;49.404;7.734;2023-09-12T20:47:17;97042.97;;;19.45;100.00
23616;BME280;11985;49.404;7.734;2023-09-12T20:52:20;97038.41;;;19.35;100.00
23616;BME280;11985;49.404;7.734;2023-09-12T20:57:22;97042.13;;;19.14;100.00
23616;BME280;11985;49.404;7.734;2023-09-12T21:02:25;97042.09;;;18.98;100.00
23616;BME280;11985;49.404;7.734;2023-09-12T21:07:27;97044.78;;;18.88;100.00
23616;BME280;11985;49.404;7.734;2023-09-12T21:12:28;97048.50;;;18.77;100.00
23616;BME280;11985;49.404;7.734;2023-09-12T21:17:36;97047.34;;;18.63;100.00
23616;BME280;11985;49.404;7.734;2023-09-12T21:22:37;97043.03;;;18.52;100.00
23616;BME280;11985;49.404;7.734;2023-09-12T21:27:39;97029.13;;;18.39;100.00
23616;BME280;11985;49.404;7.734;2023-09-12T21:32:42;97046.66;;;18.25;100.00
23616;BME280;11985;49.404;7.734;2023-09-12T21:37:44;97032.25;;;18.16;100.00
23616;BME280;11985;49.404;7.734;2023-09-12T21:42:46;97036.75;;;18.10;100.00
23616;BME280;11985;49.404;7.734;2023-09-12T21:47:49;97035.59;;;17.96;100.00
23616;BME280;11985;49.404;7.734;2023-09-12T21:52:51;97035.34;;;17.98;100.00
23616;BME280;11985;49.404;7.734;2023-09-12T21:57:52;97040.41;;;17.94;100.00
23616;BME280;11985;49.404;7.734;2023-09-12T22:02:55;97048.06;;;17.85;100.00
23616;BME280;11985;49.404;7.734;2023-09-12T22:07:57;97064.97;;;17.69;100.00
23616;BME280;11985;49.404;7.734;2023-09-12T22:12:59;97070.16;;;17.54;100.00
23616;BME280;11985;49.404;7.734;2023-09-12T22:18:02;97080.19;;;17.41;100.00
23616;BME280;11985;49.404;7.734;2023-09-12T22:23:04;97063.63;;;17.34;100.00
23616;BME280;11985;49.404;7.734;2023-09-12T22:28:06;97061.44;;;17.26;100.00
23616;BME280;11985;49.404;7.734;2023-09-12T22:33:08;97070.38;;;17.15;100.00
23616;BME280;11985;49.404;7.734;2023-09-12T22:38:11;97080.47;;;17.13;100.00
23616;BME280;11985;49.404;7.734;2023-09-12T22:43:13;97088.94;;;17.05;100.00
23616;BME280;11985;49.404;7.734;2023-09-12T22:48:16;97106.63;;;16.94;100.00
23616;BME280;11985;49.404;7.734;2023-09-12T22:53:17;97106.81;;;16.87;100.00
23616;BME280;11985;49.404;7.734;2023-09-12T22:58:19;97100.88;;;16.80;100.00
23616;BME280;11985;49.404;7.734;2023-09-12T23:03:22;97125.63;;;16.81;100.00
23616;BME280;11985;49.404;7.734;2023-09-12T23:08:24;97137.00;;;16.76;100.00
23616;BME280;11985;49.404;7.734;2023-09-12T23:13:26;97133.81;;;16.74;100.00
23616;BME280;11985;49.404;7.734;2023-09-12T23:18:29;97137.97;;;16.70;100.00
23616;BME280;11985;49.404;7.734;2023-09-12T23:23:30;97140.88;;;16.69;100.00
23616;BME280;11985;49.404;7.734;2023-09-12T23:28:32;97147.19;;;16.62;100.00
23616;BME280;11985;49.404;7.734;2023-09-12T23:33:35;97141.06;;;16.62;100.00
23616;BME280;11985;49.404;7.734;2023-09-12T23:38:36;97135.94;;;16.55;100.00
23616;BME280;11985;49.404;7.734;2023-09-12T23:43:38;97135.16;;;16.55;100.00
23616;BME280;11985;49.404;7.734;2023-09-12T23:48:41;97131.44;;;16.56;100.00
23616;BME280;11985;49.404;7.734;2023-09-12T23:53:42;97126.91;;;16.56;100.00
23616;BME280;11985;49.404;7.734;2023-09-12T23:58:47;97120.78;;;16.56;100.00
